Wyanet, Illinois
Current Conditions -  °F | °C
As of 6:15 PM on Thursday 27 Nov 2014 (Local Time) from KVYS Reporting Station
Clear Clear  
Wind Chill:   Ceiling: Unl
Heat Index: 17°   Visibility: 10mi
Dew Point: 12°   Wind: 7mph
Humidity: 81%   Direction: 280°W
Pressure: 30.44"   Gusts: NA
Location:  41.37°N, 89.58°W
Report Text: KVYS 280015Z AUTO 28006KT 10SM CLR M08/M11 A3044 RMK AO2 T10821110
Loading
Personal Weather Stations






























Interactive Weather Map New forecast layout! Learn more

10-Day Weather Forecast

Advertisements
Track Severe Weather on mobile